Time;durP1;ratioP1;P1;durP2;ratioP2;P2;SDS_P1;SDS_P2;PMS_P1;PMS_P2;Temp;Humidity;BMP_temperature;BMP_pressure;BME280_temperature;BME280_humidity;BME280_pressure;Samples;Min_cycle;Max_cycle;Signal;HPM_P1;HPM_P2
2022/09/13 00:02:23;;;;;;;366.53;312.60;;;;;;;;;;5095769;28;20505;-79
2022/09/13 00:04:51;;;;;;;352.50;316.30;;;;;;;;;;5096033;28;20481;-79
2022/09/13 00:07:18;;;;;;;359.13;319.60;;;;;;;;;;5096061;28;20445;-79
2022/09/13 00:09:45;;;;;;;418.57;316.57;;;;;;;;;;5096218;28;20484;-79
2022/09/13 00:12:12;;;;;;;385.30;329.03;;;;;;;;;;5099813;28;20934;-79
2022/09/13 00:14:40;;;;;;;424.90;326.50;;;;;;;;;;5099975;28;20443;-79
2022/09/13 00:17:07;;;;;;;396.30;344.77;;;;;;;;;;5100242;28;20449;-78
2022/09/13 00:19:36;;;;;;;367.30;332.03;;;;;;;;;;5099794;28;20466;-78
2022/09/13 00:22:05;;;;;;;426.37;332.20;;;;;;;;;;5099050;28;20442;-79
2022/09/13 00:24:33;;;;;;;337.30;309.33;;;;;;;;;;5099713;28;20531;-79
2022/09/13 00:27:01;;;;;;;370.73;335.40;;;;;;;;;;5099417;28;20451;-78
2022/09/13 00:29:28;;;;;;;359.03;331.47;;;;;;;;;;5099449;28;20468;-78
2022/09/13 00:31:56;;;;;;;385.30;347.63;;;;;;;;;;5099026;28;20455;-78
2022/09/13 00:34:24;;;;;;;422.60;342.17;;;;;;;;;;5099755;28;20492;-79
2022/09/13 00:36:52;;;;;;;409.53;340.43;;;;;;;;;;5099602;28;20853;-79
2022/09/13 00:39:20;;;;;;;383.73;314.63;;;;;;;;;;5098860;28;21021;-79
2022/09/13 00:41:47;;;;;;;365.90;328.07;;;;;;;;;;5098859;28;20460;-79
2022/09/13 00:44:33;;;;;;;477.57;339.33;;;;;;;;;;5098627;28;20494;-78
2022/09/13 00:47:01;;;;;;;359.87;320.77;;;;;;;;;;5099378;28;20442;-80
2022/09/13 00:49:33;;;;;;;351.97;314.70;;;;;;;;;;5099068;28;20469;-79
2022/09/13 00:52:04;;;;;;;376.07;335.97;;;;;;;;;;5098801;28;20780;-79
2022/09/13 00:54:36;;;;;;;427.13;321.23;;;;;;;;;;5098865;28;20920;-79
2022/09/13 00:57:04;;;;;;;375.83;328.67;;;;;;;;;;5099410;28;20434;-79
2022/09/13 00:59:34;;;;;;;371.50;335.30;;;;;;;;;;5098931;28;20507;-78
2022/09/13 01:02:03;;;;;;;414.23;352.47;;;;;;;;;;5098677;28;20438;-79
2022/09/13 01:04:31;;;;;;;390.27;339.60;;;;;;;;;;5099030;28;20475;-80
2022/09/13 01:07:00;;;;;;;383.30;343.43;;;;;;;;;;5099003;28;20457;-77
2022/09/13 01:09:31;;;;;;;375.73;327.67;;;;;;;;;;5098274;28;20466;-79
2022/09/13 01:12:03;;;;;;;365.47;326.17;;;;;;;;;;5097990;28;20460;-79
2022/09/13 01:14:31;;;;;;;378.77;346.30;;;;;;;;;;5098865;28;20443;-79
2022/09/13 01:16:58;;;;;;;379.63;342.70;;;;;;;;;;5098779;28;20784;-78
2022/09/13 01:19:25;;;;;;;379.17;350.90;;;;;;;;;;5098757;28;20478;-78
2022/09/13 01:22:09;;;;;;;392.57;355.73;;;;;;;;;;5097757;28;20433;-79
2022/09/13 01:24:51;;;;;;;371.13;326.80;;;;;;;;;;5098429;28;20473;-79
2022/09/13 01:27:36;;;;;;;362.13;329.47;;;;;;;;;;5090052;28;20457;-79
2022/09/13 01:30:12;;;;;;;374.67;328.10;;;;;;;;;;5098827;28;20469;-79
2022/09/13 01:32:55;;;;;;;381.77;340.00;;;;;;;;;;5097841;28;20443;-79
2022/09/13 01:35:26;;;;;;;410.53;327.97;;;;;;;;;;5098364;28;20431;-79
2022/09/13 01:37:56;;;;;;;425.47;348.63;;;;;;;;;;5097705;28;20802;-79
2022/09/13 01:40:31;;;;;;;407.47;340.10;;;;;;;;;;5098039;28;20465;-78
2022/09/13 01:43:04;;;;;;;421.10;333.17;;;;;;;;;;5097919;28;20541;-77
2022/09/13 01:45:38;;;;;;;425.10;339.80;;;;;;;;;;5098146;28;20458;-79
2022/09/13 01:48:09;;;;;;;379.03;338.17;;;;;;;;;;5098060;28;20430;-78
2022/09/13 01:50:40;;;;;;;389.23;349.53;;;;;;;;;;5097744;28;20530;-79
2022/09/13 01:53:12;;;;;;;380.10;340.83;;;;;;;;;;5096894;28;20442;-79
2022/09/13 01:55:41;;;;;;;411.30;337.23;;;;;;;;;;5097560;28;20447;-78
2022/09/13 01:58:12;;;;;;;389.07;346.60;;;;;;;;;;5097871;28;20458;-79
2022/09/13 02:00:44;;;;;;;381.77;338.10;;;;;;;;;;5097529;28;20419;-79
2022/09/13 02:03:15;;;;;;;409.20;347.23;;;;;;;;;;5095850;28;20438;-79
2022/09/13 02:05:45;;;;;;;391.20;355.93;;;;;;;;;;5095841;28;20492;-78
2022/09/13 02:08:14;;;;;;;426.70;350.37;;;;;;;;;;5096261;28;20442;-78
2022/09/13 02:10:43;;;;;;;381.57;341.83;;;;;;;;;;5095923;28;20458;-78
2022/09/13 02:13:13;;;;;;;406.93;367.27;;;;;;;;;;5095864;28;20452;-79
2022/09/13 02:15:44;;;;;;;396.77;358.23;;;;;;;;;;5096176;28;20455;-78
2022/09/13 02:18:16;;;;;;;417.37;377.93;;;;;;;;;;5096632;28;20449;-78
2022/09/13 02:20:44;;;;;;;360.90;330.33;;;;;;;;;;5096298;28;20453;-78
2022/09/13 02:23:14;;;;;;;372.47;343.47;;;;;;;;;;5095286;28;20452;-78
2022/09/13 02:25:42;;;;;;;391.80;359.87;;;;;;;;;;5096015;28;20488;-78
2022/09/13 02:28:11;;;;;;;362.33;332.37;;;;;;;;;;5095709;28;20429;-79
2022/09/13 02:30:40;;;;;;;387.80;354.73;;;;;;;;;;5095449;28;20460;-77
2022/09/13 02:33:12;;;;;;;379.57;343.23;;;;;;;;;;5094422;28;20514;-79
2022/09/13 02:35:41;;;;;;;417.43;361.17;;;;;;;;;;5095857;28;20434;-78
2022/09/13 02:38:13;;;;;;;408.80;365.13;;;;;;;;;;5095539;28;20462;-79
2022/09/13 02:40:43;;;;;;;394.73;352.57;;;;;;;;;;5095474;28;20886;-78
2022/09/13 02:43:13;;;;;;;377.23;352.70;;;;;;;;;;5094789;28;20439;-78
2022/09/13 02:45:46;;;;;;;442.07;395.60;;;;;;;;;;5095484;28;20467;-79
2022/09/13 02:48:20;;;;;;;383.03;340.77;;;;;;;;;;5095197;28;20478;-78
2022/09/13 02:50:51;;;;;;;402.20;357.70;;;;;;;;;;5095510;28;20439;-79
2022/09/13 02:53:23;;;;;;;411.23;365.40;;;;;;;;;;5095336;28;20812;-78
2022/09/13 02:55:54;;;;;;;404.97;361.90;;;;;;;;;;5095218;28;20449;-78
2022/09/13 02:58:26;;;;;;;393.43;349.33;;;;;;;;;;5095121;28;20436;-78
2022/09/13 03:00:53;;;;;;;406.33;377.27;;;;;;;;;;5094738;28;20442;-78
2022/09/13 03:03:22;;;;;;;385.53;358.13;;;;;;;;;;5095395;28;20793;-79
2022/09/13 03:05:49;;;;;;;398.93;366.13;;;;;;;;;;5096218;28;20485;-78
2022/09/13 03:08:17;;;;;;;404.00;369.80;;;;;;;;;;5095357;28;20441;-78
2022/09/13 03:10:58;;;;;;;411.00;370.67;;;;;;;;;;5095447;28;20451;-78
2022/09/13 03:13:35;;;;;;;407.50;371.53;;;;;;;;;;5095408;28;20423;-79
2022/09/13 03:16:06;;;;;;;399.73;355.73;;;;;;;;;;5095505;28;20446;-79
2022/09/13 03:18:42;;;;;;;400.90;362.53;;;;;;;;;;5095613;28;20475;-78
2022/09/13 03:21:16;;;;;;;397.80;362.53;;;;;;;;;;5094887;28;20487;-78
2022/09/13 03:23:48;;;;;;;427.90;363.37;;;;;;;;;;5095084;28;20897;-80
2022/09/13 03:26:33;;;;;;;398.97;356.17;;;;;;;;;;5095022;28;20473;-78
2022/09/13 03:29:11;;;;;;;451.33;342.80;;;;;;;;;;5095048;28;20470;-78
2022/09/13 03:31:43;;;;;;;401.10;362.13;;;;;;;;;;5094660;28;20423;-78
2022/09/13 03:34:14;;;;;;;403.30;365.27;;;;;;;;;;5094898;28;20451;-78
2022/09/13 03:36:44;;;;;;;407.37;372.40;;;;;;;;;;5095321;28;20435;-78
2022/09/13 03:39:14;;;;;;;366.13;338.27;;;;;;;;;;5094967;28;20470;-78
2022/09/13 03:41:44;;;;;;;354.27;333.13;;;;;;;;;;5094644;28;20431;-79
2022/09/13 03:44:13;;;;;;;351.50;330.67;;;;;;;;;;5093906;28;20433;-78
2022/09/13 03:46:42;;;;;;;304.20;288.77;;;;;;;;;;5094569;28;20778;-79
2022/09/13 03:49:11;;;;;;;231.53;220.70;;;;;;;;;;5094537;28;20447;-78
2022/09/13 03:51:40;;;;;;;179.27;171.37;;;;;;;;;;5094022;28;20803;-79
2022/09/13 03:54:11;;;;;;;22.93;21.23;;;;;;;;;;5094212;28;20442;-79
2022/09/13 03:56:38;;;;;;;22.53;21.13;;;;;;;;;;5094261;28;20410;-78
2022/09/13 03:59:05;;;;;;;21.87;20.57;;;;;;;;;;5093637;28;20474;-78
2022/09/13 04:01:33;;;;;;;24.77;23.23;;;;;;;;;;5093345;28;20458;-78
2022/09/13 04:04:00;;;;;;;23.27;21.87;;;;;;;;;;5093328;28;20774;-78
2022/09/13 04:06:28;;;;;;;36.70;34.67;;;;;;;;;;5093493;28;20475;-78
2022/09/13 04:08:59;;;;;;;190.03;181.93;;;;;;;;;;5093673;28;20462;-78
2022/09/13 04:11:26;;;;;;;143.17;137.43;;;;;;;;;;5092834;28;20458;-78
2022/09/13 04:13:54;;;;;;;122.87;117.67;;;;;;;;;;5093317;28;20520;-78
2022/09/13 04:16:21;;;;;;;83.80;80.23;;;;;;;;;;5093690;28;20485;-78
2022/09/13 04:18:48;;;;;;;84.57;81.10;;;;;;;;;;5093380;28;20827;-77
2022/09/13 04:21:17;;;;;;;151.33;144.67;;;;;;;;;;5093150;28;20425;-78
2022/09/13 04:23:44;;;;;;;140.23;133.53;;;;;;;;;;5094038;28;20458;-79
2022/09/13 04:26:13;;;;;;;141.13;135.23;;;;;;;;;;5095169;28;20491;-78
2022/09/13 04:28:40;;;;;;;188.40;180.10;;;;;;;;;;5095584;28;20444;-78
2022/09/13 04:31:07;;;;;;;176.53;167.87;;;;;;;;;;5095507;28;20425;-78
2022/09/13 04:33:36;;;;;;;184.50;175.60;;;;;;;;;;5095739;28;20445;-78
2022/09/13 04:36:03;;;;;;;237.40;225.17;;;;;;;;;;5095992;28;20498;-78
2022/09/13 04:38:31;;;;;;;70.37;67.33;;;;;;;;;;5095265;28;20470;-79
2022/09/13 04:40:58;;;;;;;241.73;227.13;;;;;;;;;;5094566;28;20474;-79
2022/09/13 04:43:27;;;;;;;228.37;216.67;;;;;;;;;;5095662;28;20753;-79
2022/09/13 04:45:54;;;;;;;175.90;167.37;;;;;;;;;;5095373;28;20490;-78
2022/09/13 04:48:21;;;;;;;172.83;165.10;;;;;;;;;;5095655;28;20834;-78
2022/09/13 04:50:49;;;;;;;63.83;60.87;;;;;;;;;;5095522;28;20535;-78
2022/09/13 04:53:17;;;;;;;303.20;287.00;;;;;;;;;;5095393;28;20449;-78
2022/09/13 04:55:45;;;;;;;223.57;213.37;;;;;;;;;;5096382;28;20846;-79
2022/09/13 04:58:12;;;;;;;61.03;58.00;;;;;;;;;;5099138;28;20435;-78
2022/09/13 05:00:41;;;;;;;58.87;56.03;;;;;;;;;;5098787;28;20469;-79
2022/09/13 05:03:08;;;;;;;265.50;252.00;;;;;;;;;;5099419;28;20814;-79
2022/09/13 05:05:36;;;;;;;26.67;25.07;;;;;;;;;;5098506;28;20474;-79
2022/09/13 05:08:03;;;;;;;250.87;237.10;;;;;;;;;;5098962;28;20802;-79
2022/09/13 05:10:31;;;;;;;304.90;289.63;;;;;;;;;;5098382;28;20521;-79
2022/09/13 05:12:59;;;;;;;317.50;301.00;;;;;;;;;;5097960;28;20445;-79
2022/09/13 05:15:26;;;;;;;248.43;235.47;;;;;;;;;;5098241;28;20431;-79
2022/09/13 05:17:55;;;;;;;207.13;197.77;;;;;;;;;;5096942;28;20418;-77
2022/09/13 05:20:22;;;;;;;323.30;305.00;;;;;;;;;;5096279;28;20822;-77
2022/09/13 05:22:50;;;;;;;149.67;143.00;;;;;;;;;;5095816;28;20421;-77
2022/09/13 05:25:17;;;;;;;149.53;143.03;;;;;;;;;;5095797;28;21017;-77
2022/09/13 05:27:46;;;;;;;90.07;86.23;;;;;;;;;;5095696;28;20829;-77
2022/09/13 05:30:14;;;;;;;304.03;287.03;;;;;;;;;;5095836;28;21059;-77
2022/09/13 05:32:41;;;;;;;266.77;253.23;;;;;;;;;;5095498;28;20420;-76
2022/09/13 05:35:10;;;;;;;294.73;280.13;;;;;;;;;;5095306;28;20417;-75
2022/09/13 05:37:37;;;;;;;202.27;193.47;;;;;;;;;;5095666;28;20453;-77
2022/09/13 05:40:05;;;;;;;249.70;237.70;;;;;;;;;;5095645;28;20491;-76
2022/09/13 05:42:32;;;;;;;221.57;211.67;;;;;;;;;;5095779;28;20425;-78
2022/09/13 05:45:00;;;;;;;135.03;129.13;;;;;;;;;;5096172;28;21054;-77
2022/09/13 05:47:27;;;;;;;55.47;52.77;;;;;;;;;;5096796;28;20431;-76
2022/09/13 05:49:55;;;;;;;163.03;155.90;;;;;;;;;;5096445;28;20451;-77
2022/09/13 05:52:23;;;;;;;157.90;151.30;;;;;;;;;;5095595;28;20464;-84
2022/09/13 05:54:51;;;;;;;314.67;298.63;;;;;;;;;;5097035;28;20412;-77
2022/09/13 05:57:19;;;;;;;259.23;246.33;;;;;;;;;;5095921;28;20416;-77
2022/09/13 05:59:46;;;;;;;284.47;270.43;;;;;;;;;;5096394;28;20446;-78
2022/09/13 06:02:14;;;;;;;384.50;358.50;;;;;;;;;;5096205;28;20438;-78
2022/09/13 06:04:41;;;;;;;339.03;321.33;;;;;;;;;;5095847;28;20808;-77
2022/09/13 06:07:11;;;;;;;314.03;297.73;;;;;;;;;;5095916;28;20453;-76
2022/09/13 06:09:40;;;;;;;269.50;256.13;;;;;;;;;;5095797;28;20448;-77
2022/09/13 06:12:07;;;;;;;222.57;212.00;;;;;;;;;;5096258;28;20438;-78
2022/09/13 06:14:35;;;;;;;397.53;358.23;;;;;;;;;;5096220;28;20421;-77
2022/09/13 06:17:02;;;;;;;369.07;344.37;;;;;;;;;;5095609;28;20480;-78
2022/09/13 06:19:29;;;;;;;89.97;86.33;;;;;;;;;;5096213;28;20471;-78
2022/09/13 06:21:56;;;;;;;381.50;351.90;;;;;;;;;;5095234;28;20467;-81
2022/09/13 06:24:24;;;;;;;331.37;311.43;;;;;;;;;;5096244;28;20450;-81
2022/09/13 06:26:53;;;;;;;396.03;359.73;;;;;;;;;;5095479;28;20475;-76
2022/09/13 06:29:20;;;;;;;406.87;365.60;;;;;;;;;;5094837;28;20542;-77
2022/09/13 06:31:48;;;;;;;383.60;353.33;;;;;;;;;;5094633;28;20453;-76
2022/09/13 06:34:16;;;;;;;386.50;352.73;;;;;;;;;;5094157;28;20468;-77
2022/09/13 06:36:43;;;;;;;465.33;425.47;;;;;;;;;;5096394;28;20545;-75
2022/09/13 06:39:11;;;;;;;408.73;375.80;;;;;;;;;;5094421;28;20478;-77
2022/09/13 06:41:38;;;;;;;27.30;25.07;;;;;;;;;;5094165;28;21324;-77
2022/09/13 06:44:07;;;;;;;410.63;376.17;;;;;;;;;;5094315;28;20446;-77
2022/09/13 06:46:35;;;;;;;95.40;90.03;;;;;;;;;;5094636;28;20479;-76
2022/09/13 06:49:03;;;;;;;136.83;131.20;;;;;;;;;;5094813;28;20466;-76
2022/09/13 06:51:31;;;;;;;361.10;341.23;;;;;;;;;;5093159;28;20434;-76
2022/09/13 06:54:00;;;;;;;412.10;374.37;;;;;;;;;;5094481;28;20454;-76
2022/09/13 06:56:27;;;;;;;409.50;368.47;;;;;;;;;;5094247;28;20440;-76
2022/09/13 06:58:56;;;;;;;425.00;384.70;;;;;;;;;;5094153;28;20462;-77
2022/09/13 07:01:26;;;;;;;427.97;384.17;;;;;;;;;;5094161;28;20453;-78
2022/09/13 07:03:54;;;;;;;205.50;196.60;;;;;;;;;;5093762;28;20902;-76
2022/09/13 07:06:22;;;;;;;125.03;120.10;;;;;;;;;;5093962;28;20843;-76
2022/09/13 07:08:50;;;;;;;116.60;111.73;;;;;;;;;;5094153;28;20465;-76
2022/09/13 07:11:18;;;;;;;318.80;304.30;;;;;;;;;;5092882;28;20464;-76
2022/09/13 07:13:49;;;;;;;393.67;372.10;;;;;;;;;;5094815;28;20762;-77
2022/09/13 07:16:16;;;;;;;345.53;329.10;;;;;;;;;;5094128;28;20861;-76
2022/09/13 07:18:45;;;;;;;104.67;100.53;;;;;;;;;;5093921;28;20836;-85
2022/09/13 07:21:13;;;;;;;330.30;315.70;;;;;;;;;;5094108;28;20454;-77
2022/09/13 07:23:40;;;;;;;195.27;187.50;;;;;;;;;;5094409;28;20427;-77
2022/09/13 07:26:08;;;;;;;363.80;347.27;;;;;;;;;;5094507;28;20478;-80
2022/09/13 07:28:36;;;;;;;376.70;359.53;;;;;;;;;;5108978;28;20490;-76
2022/09/13 07:31:08;;;;;;;84.77;79.53;;;;;;;;;;5114140;28;20536;-77
2022/09/13 07:33:36;;;;;;;297.57;284.93;;;;;;;;;;5114374;28;20425;-78
2022/09/13 07:36:06;;;;;;;532.97;488.10;;;;;;;;;;5114434;28;20452;-77
2022/09/13 07:38:34;;;;;;;501.57;448.60;;;;;;;;;;5113876;28;20536;-77
2022/09/13 07:41:01;;;;;;;499.33;425.23;;;;;;;;;;5112770;28;20529;-77
2022/09/13 07:43:29;;;;;;;389.80;370.33;;;;;;;;;;5113638;28;20443;-76
2022/09/13 07:45:59;;;;;;;140.90;134.93;;;;;;;;;;5113865;28;20489;-77
2022/09/13 07:48:27;;;;;;;526.97;477.47;;;;;;;;;;5114018;28;20451;-76
2022/09/13 07:50:58;;;;;;;501.07;446.00;;;;;;;;;;5114984;28;20459;-83
2022/09/13 07:53:27;;;;;;;521.67;473.10;;;;;;;;;;5115767;28;20498;-81
2022/09/13 07:55:55;;;;;;;499.37;448.20;;;;;;;;;;5114748;28;20992;-81
2022/09/13 07:58:22;;;;;;;519.37;481.60;;;;;;;;;;5115838;28;20460;-82
2022/09/13 08:00:49;;;;;;;540.47;486.17;;;;;;;;;;5114003;28;20440;-77
2022/09/13 08:03:20;;;;;;;528.87;478.47;;;;;;;;;;5114349;28;20449;-89
2022/09/13 08:05:47;;;;;;;506.57;466.37;;;;;;;;;;5114651;28;20484;-75
2022/09/13 08:08:15;;;;;;;540.13;491.83;;;;;;;;;;5113002;28;20474;-75
2022/09/13 08:10:44;;;;;;;523.10;481.20;;;;;;;;;;5114376;28;20936;-79
2022/09/13 08:13:11;;;;;;;526.73;476.47;;;;;;;;;;5114907;28;20457;-77
2022/09/13 08:15:38;;;;;;;529.40;476.03;;;;;;;;;;5114607;28;20895;-77
2022/09/13 08:18:06;;;;;;;498.47;465.77;;;;;;;;;;5114808;28;20455;-80
2022/09/13 08:20:37;;;;;;;511.30;465.43;;;;;;;;;;5113814;28;20480;-78
2022/09/13 08:23:05;;;;;;;247.17;236.33;;;;;;;;;;5114898;28;20441;-79
2022/09/13 08:25:33;;;;;;;28.67;26.80;;;;;;;;;;5114858;28;20430;-78
2022/09/13 08:28:02;;;;;;;91.37;87.10;;;;;;;;;;5113806;28;20451;-78
2022/09/13 08:30:32;;;;;;;150.40;144.13;;;;;;;;;;5115082;28;20426;-78
2022/09/13 08:33:00;;;;;;;540.93;497.87;;;;;;;;;;5118769;28;20531;-78
2022/09/13 08:35:27;;;;;;;548.90;495.40;;;;;;;;;;5118793;28;20501;-79
2022/09/13 08:37:55;;;;;;;32.97;30.57;;;;;;;;;;5118658;28;20445;-78
2022/09/13 08:40:22;;;;;;;58.03;54.63;;;;;;;;;;5117975;28;20474;-79
2022/09/13 08:42:52;;;;;;;32.10;29.50;;;;;;;;;;5117908;27;20417;-78
2022/09/13 08:45:22;;;;;;;28.80;26.40;;;;;;;;;;5118497;28;20424;-78
2022/09/13 08:47:54;;;;;;;31.77;28.83;;;;;;;;;;5119277;28;20457;-83
2022/09/13 08:50:23;;;;;;;27.37;25.23;;;;;;;;;;5119667;27;20482;-83
2022/09/13 08:53:01;;;;;;;28.47;26.63;;;;;;;;;;5118332;28;20417;-86
2022/09/13 08:55:34;;;;;;;29.20;27.10;;;;;;;;;;5117626;28;20432;-79
2022/09/13 08:58:05;;;;;;;28.70;26.50;;;;;;;;;;5113157;28;20874;-79
2022/09/13 09:00:39;;;;;;;29.73;27.53;;;;;;;;;;5113244;28;20426;-79
2022/09/13 09:03:13;;;;;;;31.00;28.40;;;;;;;;;;5110326;28;20418;-80
2022/09/13 09:05:46;;;;;;;28.73;26.77;;;;;;;;;;5116098;28;20434;-79
2022/09/13 09:08:16;;;;;;;28.80;26.47;;;;;;;;;;5098181;28;20481;-79
2022/09/13 09:10:45;;;;;;;28.30;26.30;;;;;;;;;;5098608;28;20462;-79
2022/09/13 09:13:17;;;;;;;30.77;28.30;;;;;;;;;;5097519;28;20410;-79
2022/09/13 09:15:49;;;;;;;32.67;30.37;;;;;;;;;;5097899;28;20412;-80
2022/09/13 09:18:19;;;;;;;32.70;29.40;;;;;;;;;;5098066;28;20402;-79
2022/09/13 09:20:48;;;;;;;29.70;27.40;;;;;;;;;;5097556;28;20410;-79
2022/09/13 09:23:18;;;;;;;29.97;27.27;;;;;;;;;;5097091;28;20784;-79
2022/09/13 09:25:46;;;;;;;29.00;26.50;;;;;;;;;;5097920;28;20421;-80
2022/09/13 09:28:14;;;;;;;30.97;28.40;;;;;;;;;;5097085;28;20847;-79
2022/09/13 09:30:46;;;;;;;30.83;28.50;;;;;;;;;;5097566;28;20430;-78
2022/09/13 09:33:26;;;;;;;33.70;30.90;;;;;;;;;;5096997;28;20439;-78
2022/09/13 09:35:57;;;;;;;39.40;34.30;;;;;;;;;;5097996;28;20885;-80
2022/09/13 09:38:32;;;;;;;32.37;29.57;;;;;;;;;;5097815;28;20502;-79
2022/09/13 09:41:04;;;;;;;32.60;30.07;;;;;;;;;;5096730;28;20443;-79
2022/09/13 09:43:34;;;;;;;97.10;92.53;;;;;;;;;;5099464;28;20431;-79
2022/09/13 09:46:03;;;;;;;39.53;32.30;;;;;;;;;;5097361;28;20429;-80
2022/09/13 09:48:37;;;;;;;31.70;29.20;;;;;;;;;;5096500;28;20536;-79
2022/09/13 09:51:07;;;;;;;30.20;27.80;;;;;;;;;;5095476;28;20412;-76
2022/09/13 09:53:35;;;;;;;30.50;28.30;;;;;;;;;;5095856;28;20504;-77
2022/09/13 09:56:06;;;;;;;29.33;27.20;;;;;;;;;;5095512;28;20448;-77
2022/09/13 09:58:37;;;;;;;370.47;355.07;;;;;;;;;;5095450;28;20482;-76
2022/09/13 10:01:06;;;;;;;440.60;419.63;;;;;;;;;;5095040;28;20418;-79
2022/09/13 10:03:35;;;;;;;514.93;489.07;;;;;;;;;;5096833;28;20970;-79
2022/09/13 10:06:06;;;;;;;149.27;142.37;;;;;;;;;;5097519;28;20435;-79
2022/09/13 10:08:35;;;;;;;410.80;392.60;;;;;;;;;;5097198;28;20455;-79
2022/09/13 10:11:03;;;;;;;463.30;441.33;;;;;;;;;;5096812;28;20461;-80
2022/09/13 10:13:32;;;;;;;445.00;424.53;;;;;;;;;;5097448;28;20479;-79
2022/09/13 10:16:00;;;;;;;524.40;495.50;;;;;;;;;;5096994;28;20841;-79
2022/09/13 10:18:28;;;;;;;559.27;528.97;;;;;;;;;;5097458;28;20459;-79
2022/09/13 10:21:04;;;;;;;530.77;505.37;;;;;;;;;;5096788;28;20801;-80
2022/09/13 10:23:32;;;;;;;534.87;507.03;;;;;;;;;;5096816;28;20402;-79
2022/09/13 10:26:02;;;;;;;515.53;490.47;;;;;;;;;;5096670;28;20431;-78
2022/09/13 10:28:31;;;;;;;498.97;476.47;;;;;;;;;;5095299;28;20478;-78
2022/09/13 10:30:59;;;;;;;364.80;347.83;;;;;;;;;;5096699;28;20423;-79
2022/09/13 10:33:29;;;;;;;414.60;396.87;;;;;;;;;;5096572;28;20418;-78
2022/09/13 10:35:57;;;;;;;481.93;459.90;;;;;;;;;;5096818;28;20425;-79
2022/09/13 10:38:28;;;;;;;26.03;24.23;;;;;;;;;;5096747;28;20473;-79
2022/09/13 10:40:55;;;;;;;30.43;27.47;;;;;;;;;;5096242;28;20454;-78
2022/09/13 10:43:23;;;;;;;27.23;25.33;;;;;;;;;;5095846;28;20455;-78
2022/09/13 10:45:50;;;;;;;560.43;530.80;;;;;;;;;;5095970;28;20434;-79
2022/09/13 10:48:19;;;;;;;547.10;519.30;;;;;;;;;;5095421;28;20487;-79
2022/09/13 10:51:01;;;;;;;28.07;25.80;;;;;;;;;;5096231;28;21063;-79
2022/09/13 10:53:34;;;;;;;28.13;25.93;;;;;;;;;;5095357;28;20936;-79
2022/09/13 10:56:02;;;;;;;29.47;26.97;;;;;;;;;;5096131;28;20923;-79
2022/09/13 10:58:29;;;;;;;25.93;24.23;;;;;;;;;;5096103;28;20463;-79
2022/09/13 11:01:05;;;;;;;25.90;24.10;;;;;;;;;;5099528;28;20451;-79
2022/09/13 11:03:41;;;;;;;67.13;63.67;;;;;;;;;;5099687;28;20966;-79
2022/09/13 11:06:14;;;;;;;84.63;80.80;;;;;;;;;;5101204;28;20443;-79
2022/09/13 11:08:45;;;;;;;71.20;67.93;;;;;;;;;;5095909;28;20462;-79
2022/09/13 11:11:17;;;;;;;26.87;24.90;;;;;;;;;;5095036;28;20524;-79
2022/09/13 11:13:52;;;;;;;50.27;47.47;;;;;;;;;;5095814;28;20417;-78
2022/09/13 11:16:25;;;;;;;33.00;30.97;;;;;;;;;;5096372;28;20444;-79
2022/09/13 11:19:13;;;;;;;133.97;128.67;;;;;;;;;;5097203;28;20435;-79
2022/09/13 11:21:49;;;;;;;26.73;24.83;;;;;;;;;;5089541;28;20449;-79
2022/09/13 11:24:33;;;;;;;25.23;23.37;;;;;;;;;;5095073;28;20416;-79
2022/09/13 11:27:03;;;;;;;39.40;36.87;;;;;;;;;;5094516;28;20446;-78
2022/09/13 11:29:51;;;;;;;22.87;21.33;;;;;;;;;;5095060;28;20528;-79
2022/09/13 11:32:24;;;;;;;55.37;52.57;;;;;;;;;;5089673;28;20453;-79
2022/09/13 11:35:01;;;;;;;27.17;24.90;;;;;;;;;;5094401;28;20423;-79
2022/09/13 11:37:38;;;;;;;25.07;23.37;;;;;;;;;;5094322;28;20420;-79
2022/09/13 11:40:16;;;;;;;24.70;23.20;;;;;;;;;;5094433;28;20452;-79
2022/09/13 11:42:47;;;;;;;27.10;24.60;;;;;;;;;;5094143;28;20420;-79
2022/09/13 11:45:25;;;;;;;27.63;25.00;;;;;;;;;;5094831;28;20435;-79
2022/09/13 11:48:20;;;;;;;620.00;584.30;;;;;;;;;;5094624;28;20963;-79
2022/09/13 11:50:53;;;;;;;24.73;22.93;;;;;;;;;;5094154;28;20451;-79
2022/09/13 11:53:32;;;;;;;208.87;200.20;;;;;;;;;;5094056;28;21117;-79
2022/09/13 11:56:02;;;;;;;531.83;504.93;;;;;;;;;;5094048;28;20444;-79
2022/09/13 11:58:31;;;;;;;590.53;557.13;;;;;;;;;;5093917;28;20849;-78
2022/09/13 12:01:01;;;;;;;601.70;568.13;;;;;;;;;;5093264;28;20490;-79
2022/09/13 12:03:32;;;;;;;592.97;558.73;;;;;;;;;;5094406;28;20422;-78
2022/09/13 12:06:02;;;;;;;510.90;487.33;;;;;;;;;;5096042;28;20440;-79
2022/09/13 12:08:32;;;;;;;25.40;23.57;;;;;;;;;;5098617;28;20974;-79
2022/09/13 12:11:03;;;;;;;608.83;575.37;;;;;;;;;;5098608;28;20459;-78
2022/09/13 12:13:32;;;;;;;535.70;510.50;;;;;;;;;;5099259;28;20413;-79
2022/09/13 12:16:02;;;;;;;28.63;26.37;;;;;;;;;;5099273;28;20447;-80
2022/09/13 12:18:31;;;;;;;579.17;540.67;;;;;;;;;;5099063;28;20445;-79
2022/09/13 12:21:00;;;;;;;28.73;25.73;;;;;;;;;;5098788;28;20531;-79
2022/09/13 12:23:32;;;;;;;599.23;561.13;;;;;;;;;;5100271;28;20423;-79
2022/09/13 12:26:02;;;;;;;25.40;23.53;;;;;;;;;;5100135;28;20416;-79
2022/09/13 12:28:33;;;;;;;500.67;478.27;;;;;;;;;;5099438;28;20523;-78
2022/09/13 12:31:01;;;;;;;28.20;25.70;;;;;;;;;;5099470;28;20406;-78
2022/09/13 12:33:29;;;;;;;538.03;510.13;;;;;;;;;;5099500;28;20459;-79
2022/09/13 12:36:17;;;;;;;526.83;500.10;;;;;;;;;;5099341;28;20426;-79
2022/09/13 12:38:57;;;;;;;569.10;538.97;;;;;;;;;;5073340;28;20434;-80
2022/09/13 12:41:32;;;;;;;509.13;484.40;;;;;;;;;;5098510;28;20435;-80
2022/09/13 12:44:18;;;;;;;257.53;247.80;;;;;;;;;;5098595;28;20908;-80
2022/09/13 12:47:02;;;;;;;27.00;24.83;;;;;;;;;;5098495;28;20450;-79
2022/09/13 12:49:39;;;;;;;28.23;26.33;;;;;;;;;;5098665;28;20460;-79
2022/09/13 12:52:27;;;;;;;27.00;24.93;;;;;;;;;;5098373;28;20575;-79
2022/09/13 12:55:09;;;;;;;26.23;24.50;;;;;;;;;;5097977;28;20788;-80
2022/09/13 12:57:41;;;;;;;26.50;24.50;;;;;;;;;;5066582;28;20522;-79
2022/09/13 13:00:13;;;;;;;24.93;23.33;;;;;;;;;;5097789;28;20472;-78
2022/09/13 13:02:43;;;;;;;56.30;53.27;;;;;;;;;;5097461;28;20444;-78
2022/09/13 13:05:20;;;;;;;500.17;474.87;;;;;;;;;;5097688;28;20443;-79
2022/09/13 13:07:52;;;;;;;639.50;598.70;;;;;;;;;;5097865;28;20490;-79
2022/09/13 13:10:29;;;;;;;546.50;521.03;;;;;;;;;;5097574;28;20999;-79
2022/09/13 13:13:09;;;;;;;508.27;484.23;;;;;;;;;;5096157;28;20521;-79
2022/09/13 13:15:57;;;;;;;27.00;24.90;;;;;;;;;;5097343;28;20390;-79
2022/09/13 13:18:26;;;;;;;645.70;610.20;;;;;;;;;;5097236;28;20474;-79
2022/09/13 13:21:22;;;;;;;333.23;319.77;;;;;;;;;;5097614;28;20997;-80
2022/09/13 13:24:09;;;;;;;669.97;630.47;;;;;;;;;;5097431;28;20440;-79
2022/09/13 13:26:47;;;;;;;590.27;558.33;;;;;;;;;;5096821;28;20453;-80
2022/09/13 13:29:21;;;;;;;490.23;466.77;;;;;;;;;;5096984;28;20513;-80
2022/09/13 13:32:11;;;;;;;26.17;24.47;;;;;;;;;;5097779;28;21013;-79
2022/09/13 13:34:40;;;;;;;27.47;25.47;;;;;;;;;;5097653;28;20433;-80
2022/09/13 13:37:23;;;;;;;613.03;575.60;;;;;;;;;;5097511;28;20813;-80
2022/09/13 13:40:10;;;;;;;573.43;538.17;;;;;;;;;;5097238;28;20443;-80
2022/09/13 13:42:38;;;;;;;607.70;569.40;;;;;;;;;;5097135;28;20421;-80
2022/09/13 13:45:15;;;;;;;606.03;567.10;;;;;;;;;;5096935;28;20463;-79
2022/09/13 13:48:04;;;;;;;24.80;23.20;;;;;;;;;;5101060;28;20474;-80
2022/09/13 13:50:31;;;;;;;25.33;23.47;;;;;;;;;;5117103;28;20409;-80
2022/09/13 13:53:05;;;;;;;27.47;25.37;;;;;;;;;;5116668;28;20970;-79
2022/09/13 13:55:39;;;;;;;24.10;22.60;;;;;;;;;;5117422;28;20452;-79
2022/09/13 13:58:12;;;;;;;22.87;21.47;;;;;;;;;;5117202;28;20398;-79
2022/09/13 14:00:49;;;;;;;21.33;20.03;;;;;;;;;;5117341;28;20408;-79
2022/09/13 14:03:22;;;;;;;598.27;562.73;;;;;;;;;;5115914;28;20402;-79
2022/09/13 14:05:52;;;;;;;22.73;21.13;;;;;;;;;;5116794;28;20424;-79
2022/09/13 14:08:29;;;;;;;76.53;70.23;;;;;;;;;;5116799;28;20491;-80
2022/09/13 14:11:00;;;;;;;24.63;22.47;;;;;;;;;;5116534;28;20458;-79
2022/09/13 14:13:38;;;;;;;23.47;21.97;;;;;;;;;;5117138;28;20419;-79
2022/09/13 14:16:10;;;;;;;23.57;22.10;;;;;;;;;;5116472;28;20428;-80
2022/09/13 14:18:49;;;;;;;22.53;21.13;;;;;;;;;;5115791;27;20445;-79
2022/09/13 14:21:25;;;;;;;33.33;25.70;;;;;;;;;;5115804;28;20431;-79